createdAt,value
2022-11-16T00:01:57.925Z,96657.34
2022-11-16T00:04:44.940Z,96659.53
2022-11-16T00:07:32.041Z,96658.81
2022-11-16T00:10:19.328Z,96657.94
2022-11-16T00:13:06.460Z,96664.78
2022-11-16T00:15:59.803Z,96664.38
2022-11-16T00:18:46.945Z,96663.66
2022-11-16T00:21:34.368Z,96657.84
2022-11-16T00:24:23.361Z,96646.16
2022-11-16T00:27:10.325Z,96653.38
2022-11-16T00:29:57.258Z,96642.50
2022-11-16T00:32:44.193Z,96644.81
2022-11-16T00:35:31.693Z,96643.00
2022-11-16T00:38:18.684Z,96639.41
2022-11-16T00:41:06.525Z,96636.91
2022-11-16T00:43:53.641Z,96638.88
2022-11-16T00:46:41.268Z,96634.28
2022-11-16T00:49:28.192Z,96632.81
2022-11-16T00:52:15.140Z,96631.41
2022-11-16T00:55:02.552Z,96633.56
2022-11-16T00:57:50.064Z,96625.97
2022-11-16T01:00:37.468Z,96627.59
2022-11-16T01:03:24.456Z,96615.63
2022-11-16T01:06:13.517Z,96606.56
2022-11-16T01:09:00.946Z,96611.28
2022-11-16T01:12:06.278Z,96599.34
2022-11-16T01:14:53.280Z,96588.69
2022-11-16T01:17:41.034Z,96596.34
2022-11-16T01:20:29.685Z,96581.78
2022-11-16T01:23:16.652Z,96578.16
2022-11-16T01:26:03.677Z,96579.22
2022-11-16T01:28:50.806Z,96577.06
2022-11-16T01:31:37.985Z,96576.00
2022-11-16T01:34:25.376Z,96572.56
2022-11-16T01:37:12.365Z,96566.56
2022-11-16T01:39:59.848Z,96568.91
2022-11-16T01:42:47.041Z,96568.22
2022-11-16T01:45:42.366Z,96565.16
2022-11-16T01:48:30.592Z,96561.88
2022-11-16T01:51:17.816Z,96546.47
2022-11-16T01:54:08.976Z,96544.72
2022-11-16T01:56:57.084Z,96547.06
2022-11-16T01:59:46.165Z,96543.75
2022-11-16T02:02:33.316Z,96548.81
2022-11-16T02:05:28.514Z,96542.44
2022-11-16T02:09:17.960Z,96545.59
2022-11-16T02:12:45.516Z,96533.63
2022-11-16T02:15:47.994Z,96533.63
2022-11-16T02:19:10.941Z,96522.94
2022-11-16T02:22:33.568Z,96519.28
2022-11-16T02:26:02.553Z,96516.41
2022-11-16T02:29:11.847Z,96499.06
2022-11-16T02:32:19.314Z,96499.63
2022-11-16T02:35:17.488Z,96488.19
2022-11-16T02:38:13.341Z,96488.16
2022-11-16T02:41:14.114Z,96488.47
2022-11-16T02:44:07.217Z,96487.47
2022-11-16T02:46:59.920Z,96475.91
2022-11-16T02:49:53.002Z,96483.53
2022-11-16T02:52:40.137Z,96478.34
2022-11-16T02:55:29.947Z,96486.44
2022-11-16T02:58:23.732Z,96491.59
2022-11-16T03:01:18.376Z,96490.44
2022-11-16T03:04:16.692Z,96470.59
2022-11-16T03:07:07.375Z,96446.75
2022-11-16T03:09:56.281Z,96455.34
2022-11-16T03:12:43.759Z,96461.31
2022-11-16T03:15:31.129Z,96455.75
2022-11-16T03:18:20.257Z,96451.59
2022-11-16T03:21:17.699Z,96443.63
2022-11-16T03:24:06.109Z,96452.50
2022-11-16T03:27:30.122Z,96448.81
2022-11-16T03:30:23.808Z,96449.94
2022-11-16T03:33:24.877Z,96459.91
2022-11-16T03:36:20.693Z,96468.03
2022-11-16T03:39:16.803Z,96462.38
2022-11-16T03:42:09.444Z,96466.53
2022-11-16T03:44:56.774Z,96464.34
2022-11-16T03:47:43.837Z,96461.31
2022-11-16T03:50:30.976Z,96457.34
2022-11-16T03:53:18.124Z,96447.94
2022-11-16T03:56:05.202Z,96448.69
2022-11-16T03:58:52.554Z,96443.59
2022-11-16T04:01:44.588Z,96448.69
2022-11-16T04:04:50.758Z,96443.25
2022-11-16T04:07:56.401Z,96433.81
2022-11-16T04:11:02.384Z,96414.91
2022-11-16T04:14:09.626Z,96401.47
2022-11-16T04:17:15.044Z,96403.66
2022-11-16T04:20:20.853Z,96386.25
2022-11-16T04:23:31.547Z,96376.28
2022-11-16T04:26:18.585Z,96378.47
2022-11-16T04:29:05.672Z,96388.09
2022-11-16T04:32:11.219Z,96387.59
2022-11-16T04:35:16.853Z,96383.22
2022-11-16T04:38:04.014Z,96379.84
2022-11-16T04:40:50.986Z,96378.75
2022-11-16T04:43:37.911Z,96375.63
2022-11-16T04:46:43.405Z,96378.34
2022-11-16T04:49:30.392Z,96378.66
2022-11-16T04:52:17.612Z,96378.34
2022-11-16T04:55:05.308Z,96376.66
2022-11-16T04:57:52.545Z,96367.25
2022-11-16T05:00:39.751Z,96368.59
2022-11-16T05:03:26.714Z,96367.50
2022-11-16T05:06:13.571Z,96371.25
2022-11-16T05:09:00.472Z,96375.41
2022-11-16T05:11:47.631Z,96379.56
2022-11-16T05:14:34.568Z,96369.97
2022-11-16T05:17:22.513Z,96367.81
2022-11-16T05:20:28.968Z,96359.53
2022-11-16T05:23:34.726Z,96360.91
2022-11-16T05:26:21.709Z,96360.91
2022-11-16T05:29:08.767Z,96351.53
2022-11-16T05:31:55.852Z,96357.75
2022-11-16T05:34:43.158Z,96352.97
2022-11-16T05:37:30.549Z,96345.56
2022-11-16T05:40:17.638Z,96347.53
2022-11-16T05:43:04.559Z,96346.75
2022-11-16T05:45:51.701Z,96353.47
2022-11-16T05:48:38.851Z,96355.28
2022-11-16T05:51:25.917Z,96358.00
2022-11-16T05:54:21.967Z,96359.84
2022-11-16T05:57:09.105Z,96359.69
2022-11-16T05:59:56.266Z,96371.03
2022-11-16T06:02:43.455Z,96365.41
2022-11-16T06:05:38.968Z,96371.03
2022-11-16T06:08:27.312Z,96381.81
2022-11-16T06:11:14.634Z,96380.53
2022-11-16T06:14:01.583Z,96384.03
2022-11-16T06:16:48.512Z,96396.19
2022-11-16T06:19:35.473Z,96387.13
2022-11-16T06:22:22.578Z,96386.03
2022-11-16T06:25:10.981Z,96396.69
2022-11-16T06:27:58.976Z,96401.59
2022-11-16T06:30:45.917Z,96401.03
2022-11-16T06:33:33.941Z,96397.78
2022-11-16T06:36:21.099Z,96397.94
2022-11-16T06:39:07.972Z,96408.50
2022-11-16T06:41:55.044Z,96416.94
2022-11-16T06:44:42.181Z,96415.81
2022-11-16T06:47:29.176Z,96424.22
2022-11-16T06:50:19.262Z,96425.47
2022-11-16T06:53:06.404Z,96414.22
2022-11-16T06:55:53.578Z,96425.31
2022-11-16T06:58:42.721Z,96432.66
2022-11-16T07:01:32.854Z,96439.84
2022-11-16T07:04:20.153Z,96439.03
2022-11-16T07:07:07.635Z,96437.03
2022-11-16T07:09:54.572Z,96447.19
2022-11-16T07:12:41.561Z,96436.25
2022-11-16T07:15:28.681Z,96447.84
2022-11-16T07:18:15.825Z,96447.19
2022-11-16T07:21:13.856Z,96449.69
2022-11-16T07:24:00.827Z,96459.47
2022-11-16T07:26:49.006Z,96464.50
2022-11-16T07:29:36.099Z,96464.66
2022-11-16T07:32:23.001Z,96478.31
2022-11-16T07:35:10.312Z,96483.78
2022-11-16T07:37:57.459Z,96492.50
2022-11-16T07:40:45.747Z,96503.94
2022-11-16T07:43:35.205Z,96499.06
2022-11-16T07:46:47.604Z,96515.56
2022-11-16T07:49:30.593Z,96513.28
2022-11-16T07:52:17.549Z,96519.22
2022-11-16T07:55:05.732Z,96523.63
2022-11-16T07:57:53.579Z,96527.38
2022-11-16T08:00:40.719Z,96533.66
2022-11-16T08:03:27.874Z,96535.44
2022-11-16T08:06:23.107Z,96543.03
2022-11-16T08:09:10.110Z,96548.81
2022-11-16T08:11:57.245Z,96553.28
2022-11-16T08:14:44.629Z,96551.09
2022-11-16T08:17:31.616Z,96549.94
2022-11-16T08:20:18.847Z,96543.69
2022-11-16T08:23:05.781Z,96549.88
2022-11-16T08:25:52.823Z,96553.88
2022-11-16T08:28:40.707Z,96564.84
2022-11-16T08:31:29.107Z,96567.06
2022-11-16T08:34:16.532Z,96570.59
2022-11-16T08:37:03.677Z,96561.28
2022-11-16T08:39:51.673Z,96566.84
2022-11-16T08:42:43.460Z,96570.28
2022-11-16T08:45:31.701Z,96562.63
2022-11-16T08:48:19.661Z,96566.56
2022-11-16T08:51:18.149Z,96569.34
2022-11-16T08:54:06.365Z,96569.50
2022-11-16T08:56:53.461Z,96566.69
2022-11-16T08:59:40.595Z,96571.59
2022-11-16T09:02:27.588Z,96570.47
2022-11-16T09:05:15.245Z,96573.66
2022-11-16T09:08:02.405Z,96569.50
2022-11-16T09:10:49.573Z,96573.41
2022-11-16T09:13:36.997Z,96567.19
2022-11-16T09:16:30.420Z,96573.41
2022-11-16T09:19:17.726Z,96568.03
2022-11-16T09:22:06.499Z,96575.16
2022-11-16T09:24:53.367Z,96570.84
2022-11-16T09:27:40.311Z,96574.75
2022-11-16T09:30:27.434Z,96561.03
2022-11-16T09:33:14.462Z,96559.22
2022-11-16T09:36:09.368Z,96561.84
2022-11-16T09:42:33.435Z,96561.25
2022-11-16T09:45:29.827Z,96560.63
2022-11-16T09:48:18.580Z,96550.00
2022-11-16T09:51:12.293Z,96556.69
2022-11-16T09:54:06.466Z,96550.50
2022-11-16T09:57:06.716Z,96545.03
2022-11-16T10:00:02.000Z,96543.56
2022-11-16T10:03:06.769Z,96550.47
2022-11-16T10:06:02.749Z,96542.84
2022-11-16T10:08:52.145Z,96539.59
2022-11-16T10:12:04.321Z,96532.88
2022-11-16T10:15:19.737Z,96541.44
2022-11-16T10:18:52.973Z,96528.25
2022-11-16T10:22:19.058Z,96528.25
2022-11-16T10:25:19.328Z,96527.03
2022-11-16T10:28:48.267Z,96520.97
2022-11-16T10:31:57.146Z,96518.47
2022-11-16T10:35:01.801Z,96518.25
2022-11-16T10:37:50.492Z,96509.41
2022-11-16T10:40:38.895Z,96508.59
2022-11-16T10:43:30.175Z,96512.44
2022-11-16T10:46:44.217Z,96508.19
2022-11-16T10:49:57.019Z,96502.97
2022-11-16T10:52:44.005Z,96501.97
2022-11-16T10:55:31.246Z,96500.97
2022-11-16T10:58:18.233Z,96510.44
2022-11-16T11:01:10.629Z,96507.13
2022-11-16T11:03:58.487Z,96504.59
2022-11-16T11:06:47.979Z,96497.72
2022-11-16T11:09:37.583Z,96497.84
2022-11-16T11:12:38.639Z,96499.31
2022-11-16T11:15:27.365Z,96486.13
2022-11-16T11:18:29.098Z,96483.66
2022-11-16T11:21:28.400Z,96494.81
2022-11-16T11:24:43.362Z,96479.41
2022-11-16T11:27:31.693Z,96479.88
2022-11-16T11:30:20.636Z,96473.28
2022-11-16T11:33:12.808Z,96481.44
2022-11-16T11:36:22.627Z,96478.91
2022-11-16T11:39:34.055Z,96470.31
2022-11-16T11:42:23.235Z,96465.91
2022-11-16T11:45:15.317Z,96466.44
2022-11-16T11:48:41.393Z,96460.88
2022-11-16T11:51:33.871Z,96456.16
2022-11-16T11:54:26.109Z,96454.31
2022-11-16T11:57:20.561Z,96452.47
2022-11-16T12:00:09.270Z,96450.22
2022-11-16T12:03:42.898Z,96443.91
2022-11-16T12:07:06.586Z,96442.50
2022-11-16T12:10:41.492Z,96444.50
2022-11-16T12:14:08.872Z,96436.50
2022-11-16T12:17:42.285Z,96434.63
2022-11-16T12:20:42.827Z,96439.22
2022-11-16T12:23:54.481Z,96435.03
2022-11-16T12:27:16.330Z,96424.47
2022-11-16T12:30:18.962Z,96424.06
2022-11-16T12:33:23.718Z,96425.03
2022-11-16T12:36:32.264Z,96419.03
2022-11-16T12:40:02.292Z,96418.00
2022-11-16T12:43:18.894Z,96414.72
2022-11-16T12:46:35.426Z,96415.88
2022-11-16T12:49:59.475Z,96408.28
2022-11-16T12:53:25.281Z,96408.25
2022-11-16T12:57:00.472Z,96395.91
2022-11-16T13:00:09.678Z,96396.75
2022-11-16T13:03:19.381Z,96392.38
2022-11-16T13:06:10.163Z,96385.56
2022-11-16T13:09:26.204Z,96388.81
2022-11-16T13:12:17.265Z,96388.94
2022-11-16T13:15:05.119Z,96384.22
2022-11-16T13:18:02.408Z,96390.63
2022-11-16T13:21:00.028Z,96394.97
2022-11-16T13:24:20.250Z,96388.28
2022-11-16T13:27:39.337Z,96376.69
2022-11-16T13:31:07.328Z,96392.97
2022-11-16T13:34:02.046Z,96395.22
2022-11-16T13:36:49.024Z,96385.47
2022-11-16T13:40:19.793Z,96389.91
2022-11-16T13:43:09.330Z,96387.19
2022-11-16T13:46:00.092Z,96388.94
2022-11-16T13:48:47.665Z,96389.59
2022-11-16T13:51:34.738Z,96400.41
2022-11-16T13:54:46.968Z,96393.34
2022-11-16T13:57:34.714Z,96396.69
2022-11-16T14:00:25.873Z,96396.28
2022-11-16T14:03:38.319Z,96396.47
2022-11-16T14:06:57.068Z,96406.06
2022-11-16T14:09:46.413Z,96404.78
2022-11-16T14:13:00.101Z,96406.84
2022-11-16T14:16:38.981Z,96417.25
2022-11-16T14:20:04.922Z,96421.41
2022-11-16T14:23:11.456Z,96418.47
2022-11-16T14:26:19.137Z,96414.22
2022-11-16T14:29:56.220Z,96421.13
2022-11-16T14:32:55.052Z,96428.09
2022-11-16T14:35:42.054Z,96435.06
2022-11-16T14:38:40.253Z,96432.53
2022-11-16T14:41:27.333Z,96429.97
2022-11-16T14:44:18.823Z,96427.56
2022-11-16T14:47:15.993Z,96439.44
2022-11-16T14:50:17.112Z,96415.88
2022-11-16T14:53:06.527Z,96424.16
2022-11-16T14:56:06.339Z,96431.91
2022-11-16T14:58:58.889Z,96423.03
2022-11-16T15:01:46.098Z,96417.59
2022-11-16T15:04:33.317Z,96423.03
2022-11-16T15:07:23.654Z,96425.19
2022-11-16T15:10:16.021Z,96425.94
2022-11-16T15:13:03.935Z,96420.72
2022-11-16T15:16:18.387Z,96413.47
2022-11-16T15:19:12.391Z,96427.06
2022-11-16T15:22:01.480Z,96424.75
2022-11-16T15:25:00.451Z,96419.03
2022-11-16T15:27:47.438Z,96424.16
2022-11-16T15:30:37.540Z,96421.00
2022-11-16T15:33:28.439Z,96421.19
2022-11-16T15:36:32.949Z,96418.72
2022-11-16T15:39:23.023Z,96416.72
2022-11-16T15:42:14.694Z,96415.75
2022-11-16T15:45:15.463Z,96418.44
2022-11-16T15:48:04.932Z,96414.88
2022-11-16T15:51:27.306Z,96407.34
2022-11-16T15:54:22.414Z,96400.59
2022-11-16T15:57:12.384Z,96389.66
2022-11-16T15:59:59.427Z,96392.06
2022-11-16T16:02:46.456Z,96409.88
2022-11-16T16:05:39.282Z,96400.91
2022-11-16T16:08:35.192Z,96396.06
2022-11-16T16:11:30.998Z,96398.94
2022-11-16T16:14:29.500Z,96404.06
2022-11-16T16:17:30.191Z,96404.22
2022-11-16T16:20:20.087Z,96401.50
2022-11-16T16:23:09.409Z,96407.50
2022-11-16T16:25:56.271Z,96410.78
2022-11-16T16:28:44.372Z,96414.94
2022-11-16T16:31:31.211Z,96415.09
2022-11-16T16:34:18.519Z,96416.81
2022-11-16T16:37:05.445Z,96408.84
2022-11-16T16:39:52.690Z,96414.53
2022-11-16T16:42:40.904Z,96415.56
2022-11-16T16:45:37.180Z,96406.91
2022-11-16T16:48:24.158Z,96419.59
2022-11-16T16:51:12.702Z,96414.47
2022-11-16T16:53:59.809Z,96412.63
2022-11-16T16:56:46.949Z,96420.53
2022-11-16T16:59:33.875Z,96416.63
2022-11-16T17:02:21.054Z,96413.66
2022-11-16T17:05:08.532Z,96408.38
2022-11-16T17:07:56.286Z,96404.31
2022-11-16T17:10:43.200Z,96415.34
2022-11-16T17:13:30.507Z,96411.19
2022-11-16T17:16:18.965Z,96405.59
2022-11-16T17:19:06.532Z,96406.72
2022-11-16T17:21:53.532Z,96412.34
2022-11-16T17:24:40.732Z,96400.41
2022-11-16T17:27:27.666Z,96399.16
2022-11-16T17:30:15.756Z,96395.69
2022-11-16T17:33:02.616Z,96396.44
2022-11-16T17:36:00.783Z,96395.69
2022-11-16T17:38:47.689Z,96393.44
2022-11-16T17:41:34.944Z,96391.44
2022-11-16T17:44:22.410Z,96394.31
2022-11-16T17:47:09.501Z,96390.88
2022-11-16T17:49:56.392Z,96390.88
2022-11-16T17:52:43.616Z,96393.31
2022-11-16T17:55:30.502Z,96383.16
2022-11-16T17:58:17.509Z,96387.72
2022-11-16T18:01:04.581Z,96386.72
2022-11-16T18:03:51.790Z,96386.00
2022-11-16T18:06:39.993Z,96383.03
2022-11-16T18:09:27.076Z,96388.31
2022-11-16T18:12:13.955Z,96390.47
2022-11-16T18:15:26.966Z,96391.31
2022-11-16T18:18:07.822Z,96388.47
2022-11-16T18:20:54.911Z,96386.63
2022-11-16T18:23:41.936Z,96375.00
2022-11-16T18:26:29.578Z,96375.75
2022-11-16T18:29:18.658Z,96377.44
2022-11-16T18:32:05.607Z,96371.16
2022-11-16T18:34:53.092Z,96368.72
2022-11-16T18:37:40.297Z,96374.00
2022-11-16T18:40:27.206Z,96366.56
2022-11-16T18:43:14.311Z,96370.72
2022-11-16T18:46:03.661Z,96364.66
2022-11-16T18:48:51.294Z,96356.25
2022-11-16T18:51:38.284Z,96360.28
2022-11-16T18:54:25.188Z,96357.69
2022-11-16T18:57:12.059Z,96356.97
2022-11-16T18:59:59.025Z,96354.56
2022-11-16T19:02:45.941Z,96353.28
2022-11-16T19:05:32.913Z,96351.84
2022-11-16T19:08:19.848Z,96351.38
2022-11-16T19:11:12.387Z,96347.41
2022-11-16T19:16:35.273Z,96339.97
2022-11-16T19:19:22.258Z,96343.63
2022-11-16T19:22:09.467Z,96342.50
2022-11-16T19:24:56.340Z,96347.09
2022-11-16T19:27:43.256Z,96348.53
2022-11-16T19:30:30.318Z,96342.94
2022-11-16T19:33:17.581Z,96342.94
2022-11-16T19:36:11.278Z,96339.50
2022-11-16T19:38:59.259Z,96336.25
2022-11-16T19:41:46.319Z,96329.25
2022-11-16T19:44:33.336Z,96330.09
2022-11-16T19:47:23.115Z,96337.06
2022-11-16T19:50:11.903Z,96345.13
2022-11-16T19:52:58.932Z,96346.69
2022-11-16T19:55:53.372Z,96343.09
2022-11-16T19:58:40.701Z,96340.09
2022-11-16T20:01:29.498Z,96338.41
2022-11-16T20:04:16.688Z,96336.25
2022-11-16T20:07:05.583Z,96341.25
2022-11-16T20:09:54.576Z,96329.78
2022-11-16T20:12:41.973Z,96337.06
2022-11-16T20:15:29.066Z,96337.06
2022-11-16T20:18:16.524Z,96326.91
2022-11-16T20:21:07.894Z,96323.50
2022-11-16T20:24:00.212Z,96325.06
2022-11-16T20:26:50.110Z,96323.78
2022-11-16T20:29:37.380Z,96325.78
2022-11-16T20:32:25.307Z,96311.47
2022-11-16T20:35:17.720Z,96316.03
2022-11-16T20:38:06.216Z,96310.19
2022-11-16T20:40:53.520Z,96296.16
2022-11-16T20:43:41.440Z,96299.44
2022-11-16T20:46:33.405Z,96295.13
2022-11-16T20:49:20.621Z,96287.16
2022-11-16T20:52:07.775Z,96283.84
2022-11-16T20:54:54.760Z,96280.00
2022-11-16T20:57:41.921Z,96274.44
2022-11-16T21:00:28.844Z,96277.28
2022-11-16T21:03:15.984Z,96264.25
2022-11-16T21:06:03.383Z,96272.47
2022-11-16T21:08:50.555Z,96275.00
2022-11-16T21:11:57.793Z,96265.28
2022-11-16T21:14:44.977Z,96263.97
2022-11-16T21:17:31.919Z,96265.84
2022-11-16T21:20:27.887Z,96270.28
2022-11-16T21:23:15.413Z,96282.00
2022-11-16T21:26:06.969Z,96276.56
2022-11-16T21:28:54.408Z,96285.00
2022-11-16T21:31:41.609Z,96285.00
2022-11-16T21:34:33.546Z,96284.59
2022-11-16T21:37:22.861Z,96281.53
2022-11-16T21:40:11.060Z,96281.75
2022-11-16T21:42:58.151Z,96287.03
2022-11-16T21:45:47.598Z,96288.56
2022-11-16T21:48:35.260Z,96289.69
2022-11-16T21:51:27.110Z,96286.44
2022-11-16T21:54:14.413Z,96286.00
2022-11-16T21:57:01.295Z,96288.88
2022-11-16T21:59:48.431Z,96276.84
2022-11-16T22:02:35.334Z,96274.00
2022-11-16T22:05:40.753Z,96281.53
2022-11-16T22:08:27.901Z,96278.53
2022-11-16T22:11:15.760Z,96284.69
2022-11-16T22:14:02.752Z,96283.56
2022-11-16T22:16:49.712Z,96301.31
2022-11-16T22:19:36.885Z,96300.91
2022-11-16T22:22:24.438Z,96300.16
2022-11-16T22:25:13.772Z,96293.16
2022-11-16T22:31:14.787Z,96293.41
2022-11-16T22:34:01.940Z,96294.72
2022-11-16T22:36:48.876Z,96294.41
2022-11-16T22:39:36.733Z,96293.72
2022-11-16T22:42:23.723Z,96286.44
2022-11-16T22:45:10.936Z,96290.56
2022-11-16T22:47:57.945Z,96288.13
2022-11-16T22:50:44.909Z,96286.44
2022-11-16T22:53:32.369Z,96274.25
2022-11-16T22:56:19.927Z,96271.00
2022-11-16T22:59:06.834Z,96277.28
2022-11-16T23:01:53.776Z,96278.00
2022-11-16T23:04:40.889Z,96280.69
2022-11-16T23:07:28.081Z,96283.84
2022-11-16T23:10:15.065Z,96281.53
2022-11-16T23:13:20.706Z,96281.50
2022-11-16T23:16:08.160Z,96277.66
2022-11-16T23:18:55.777Z,96270.50
2022-11-16T23:22:01.171Z,96268.38
2022-11-16T23:25:06.944Z,96265.47
2022-11-16T23:28:18.567Z,96280.31
2022-11-16T23:31:05.777Z,96287.19
2022-11-16T23:33:52.698Z,96282.31
2022-11-16T23:36:39.671Z,96282.78
2022-11-16T23:39:26.801Z,96278.81
2022-11-16T23:42:32.637Z,96278.53
2022-11-16T23:45:20.477Z,96270.50
2022-11-16T23:48:09.695Z,96262.50
2022-11-16T23:50:56.815Z,96248.94
2022-11-16T23:53:43.982Z,96240.91
2022-11-16T23:56:30.941Z,96247.75
2022-11-16T23:59:17.941Z,96240.47
